Rechercher aéroport 
image banner adimage banner adimage banner ad
image banner ad

CA33 - County Medical Center

Situé à San Jose, United States

ICAO - CA33, IATA -

Données fournies par Airmate  

Information générale

Coordonnées: N37°18'48" W121°56'4"
Élévation : 148 feet MSL.
Variation magnétique : 16° East
Voir autres Aéroports à California

Données opérationnelles

Special qualification required
Heure actuelle UTC:
Heure actuelle locale:
METAR: KSJC 251231Z 18004KT 10SM FEW006 FEW070 SCT180 14/11 A2996 RMK AO2 T01440106
TAF: KSJC 251121Z 2512/2612 15005KT P6SM SCT015 TEMPO 2513/2516 BKN015 FM251700 VRB05KT P6SM FEW015 FM252000 31011KT P6SM FEW200 FM260300 32007KT P6SM SCT200 FM261000 14006KT P6SM SCT015 SCT200
Voir NOTAMs / SUP AIP / TFR affectant cet aéroport [VIEW]
Fréquences de communication: [VIEW]

Pistes:

Coordonnées de l'aéroport

Adresse: San Jose United States

Vue satellite de CA33